Time;durP1;ratioP1;P1;durP2;ratioP2;P2;SDS_P1;SDS_P2;PMS_P1;PMS_P2;Temp;Humidity;BMP_temperature;BMP_pressure;BME280_temperature;BME280_humidity;BME280_pressure;Samples;Min_cycle;Max_cycle;Signal;HPM_P1;HPM_P2
2021/09/22 00:00:08;;;;;;;19.30;10.60;;;;;;;10.78;85.58;97413.66;5028003;28;20205;-67
2021/09/22 00:02:37;;;;;;;20.53;11.07;;;;;;;10.87;86.17;97404.84;5028206;28;20205;-67
2021/09/22 00:05:05;;;;;;;18.87;9.80;;;;;;;10.56;84.75;97411.44;5028026;28;20206;-67
2021/09/22 00:07:33;;;;;;;18.37;9.77;;;;;;;10.74;83.55;97419.38;5027513;28;20241;-67
2021/09/22 00:10:01;;;;;;;19.23;11.10;;;;;;;10.74;84.44;97408.84;5028248;28;20208;-67
2021/09/22 00:12:28;;;;;;;20.67;11.70;;;;;;;10.81;86.51;97410.72;5027598;28;20202;-66
2021/09/22 00:14:56;;;;;;;20.87;12.00;;;;;;;10.84;84.57;97399.06;5028040;28;20205;-67
2021/09/22 00:17:24;;;;;;;18.53;10.20;;;;;;;10.32;84.49;97397.16;5027493;28;20295;-67
2021/09/22 00:19:53;;;;;;;19.20;10.40;;;;;;;10.60;83.38;97402.28;5027839;28;20268;-67
2021/09/22 00:22:21;;;;;;;18.87;10.27;;;;;;;10.60;85.41;97397.00;5027711;28;20217;-67
2021/09/22 00:24:48;;;;;;;18.70;10.97;;;;;;;10.60;86.42;97385.63;5027910;28;20263;-67
2021/09/22 00:27:16;;;;;;;22.17;10.93;;;;;;;10.54;84.03;97384.41;5027142;28;20280;-67
2021/09/22 00:29:43;;;;;;;20.87;11.20;;;;;;;10.66;86.09;97390.31;5027032;28;20240;-67
2021/09/22 00:32:11;;;;;;;18.50;10.83;;;;;;;10.68;84.97;97398.88;5027819;28;20253;-67
2021/09/22 00:34:39;;;;;;;24.33;11.60;;;;;;;10.62;87.20;97395.03;5027637;28;20206;-67
2021/09/22 00:37:08;;;;;;;20.33;11.60;;;;;;;10.64;85.58;97392.25;5027331;28;20692;-67
2021/09/22 00:39:36;;;;;;;17.80;10.63;;;;;;;10.74;84.40;97393.00;5027894;28;20217;-67
2021/09/22 00:42:04;;;;;;;18.63;10.33;;;;;;;10.75;85.67;97395.50;5031365;28;20263;-67
2021/09/22 00:44:32;;;;;;;17.17;10.20;;;;;;;10.69;85.54;97384.72;5030929;28;20202;-67
2021/09/22 00:47:00;;;;;;;19.63;10.03;;;;;;;10.77;82.63;97387.44;5030418;28;20233;-67
2021/09/22 00:49:27;;;;;;;17.77;10.07;;;;;;;10.52;83.10;97382.91;5030725;28;20202;-66
2021/09/22 00:51:55;;;;;;;17.80;9.80;;;;;;;10.59;84.22;97390.06;5031122;28;20209;-67
2021/09/22 00:54:24;;;;;;;17.53;10.23;;;;;;;10.68;84.25;97389.19;5030827;28;20206;-67
2021/09/22 00:56:52;;;;;;;19.73;9.60;;;;;;;10.66;84.47;97393.75;5030635;28;20221;-67
2021/09/22 00:59:19;;;;;;;16.57;9.50;;;;;;;10.20;83.59;97402.81;5030315;28;20326;-66
2021/09/22 01:01:49;;;;;;;17.73;9.90;;;;;;;10.46;83.47;97394.03;5030857;28;20251;-67
2021/09/22 01:04:17;;;;;;;18.77;10.83;;;;;;;10.43;85.56;97392.53;5030565;28;20225;-67
2021/09/22 01:06:45;;;;;;;21.23;10.67;;;;;;;10.55;84.76;97387.88;5030219;28;20226;-67
2021/09/22 01:09:13;;;;;;;19.30;10.63;;;;;;;10.63;84.27;97385.34;5019094;28;20247;-67
2021/09/22 01:11:42;;;;;;;21.47;10.90;;;;;;;10.63;83.48;97385.34;5018915;28;20213;-67
2021/09/22 01:14:10;;;;;;;18.70;11.27;;;;;;;10.55;85.43;97393.16;5030201;28;20260;-67
2021/09/22 01:16:42;;;;;;;20.20;11.27;;;;;;;10.71;85.64;97385.41;5028055;28;20218;-66
2021/09/22 01:19:09;;;;;;;19.03;10.57;;;;;;;10.56;83.54;97385.09;5029421;28;20221;-67
2021/09/22 01:21:39;;;;;;;20.80;10.33;;;;;;;10.68;83.99;97378.63;5030698;28;20197;-67
2021/09/22 01:24:07;;;;;;;19.57;10.37;;;;;;;10.45;83.40;97376.56;5030334;28;20206;-67
2021/09/22 01:26:35;;;;;;;16.60;9.77;;;;;;;10.47;83.36;97379.88;5029527;28;20744;-66
2021/09/22 01:29:03;;;;;;;16.53;9.77;;;;;;;10.55;84.01;97382.59;5029788;28;20205;-68
2021/09/22 01:31:30;;;;;;;18.07;9.93;;;;;;;10.55;83.39;97383.44;5030277;28;20197;-67
2021/09/22 01:34:01;;;;;;;19.30;10.53;;;;;;;10.78;83.00;97376.75;5030365;28;20209;-67
2021/09/22 01:36:29;;;;;;;19.20;10.27;;;;;;;10.56;82.39;97379.81;5029650;28;20727;-67
2021/09/22 01:38:58;;;;;;;17.47;10.27;;;;;;;10.53;83.31;97387.22;5029878;28;20202;-66
2021/09/22 01:41:26;;;;;;;18.07;10.27;;;;;;;10.45;84.13;97389.72;5030218;28;20252;-67
2021/09/22 01:43:54;;;;;;;18.73;10.70;;;;;;;10.40;85.58;97395.47;5030120;28;20210;-67
2021/09/22 01:46:22;;;;;;;22.33;11.10;;;;;;;10.40;84.33;97394.66;5029529;28;20229;-67
2021/09/22 01:48:49;;;;;;;16.43;9.80;;;;;;;10.38;83.07;97391.31;5029539;28;20677;-67
2021/09/22 01:51:17;;;;;;;19.03;10.17;;;;;;;10.16;83.48;97390.91;5029908;28;20206;-66
2021/09/22 01:53:45;;;;;;;20.10;10.83;;;;;;;10.27;82.87;97399.41;5029542;28;20206;-67
2021/09/22 01:56:14;;;;;;;18.03;10.33;;;;;;;10.32;84.99;97391.91;5028964;28;20621;-67
2021/09/22 01:58:42;;;;;;;20.37;11.03;;;;;;;10.14;86.63;97398.13;5029768;28;20301;-67
2021/09/22 02:01:13;;;;;;;19.67;11.53;;;;;;;10.23;87.64;97397.25;5029768;28;20217;-67
2021/09/22 02:03:41;;;;;;;21.40;10.67;;;;;;;10.26;85.09;97396.94;5029904;28;20210;-67
2021/09/22 02:06:09;;;;;;;19.47;11.13;;;;;;;9.96;85.48;97394.59;5028966;28;20230;-67
2021/09/22 02:08:39;;;;;;;22.13;11.10;;;;;;;10.14;84.64;97387.56;5029651;28;20548;-67
2021/09/22 02:11:07;;;;;;;18.70;10.43;;;;;;;10.32;83.92;97385.81;5029291;28;20213;-67
2021/09/22 02:13:37;;;;;;;19.47;10.67;;;;;;;10.34;82.70;97387.31;5029597;28;20202;-67
2021/09/22 02:16:04;;;;;;;18.33;10.47;;;;;;;10.11;83.72;97383.44;5028917;28;20772;-67
2021/09/22 02:18:32;;;;;;;19.80;10.73;;;;;;;10.12;83.81;97389.50;5029058;28;20576;-66
2021/09/22 02:21:00;;;;;;;18.37;10.43;;;;;;;9.76;84.58;97396.44;5029492;28;20237;-67
2021/09/22 02:23:27;;;;;;;15.43;9.30;;;;;;;9.71;84.92;97405.72;5029215;28;20549;-67
2021/09/22 02:25:55;;;;;;;18.63;10.57;;;;;;;9.86;85.99;97399.88;5028626;28;20822;-67
2021/09/22 02:28:22;;;;;;;21.03;10.77;;;;;;;9.93;86.38;97411.47;5029072;28;20205;-67
2021/09/22 02:30:52;;;;;;;20.93;11.70;;;;;;;9.99;86.92;97397.78;5028656;28;20214;-67
2021/09/22 02:33:19;;;;;;;20.07;11.70;;;;;;;10.00;85.30;97395.97;5029011;28;20206;-67
2021/09/22 02:35:47;;;;;;;21.83;11.30;;;;;;;10.03;84.59;97396.50;5028933;28;20216;-67
2021/09/22 02:38:14;;;;;;;21.93;10.00;;;;;;;10.02;83.63;97389.56;5027832;28;20603;-67
2021/09/22 02:40:42;;;;;;;17.53;9.57;;;;;;;10.08;84.65;97394.28;5028899;28;20202;-66
2021/09/22 02:43:10;;;;;;;17.87;10.50;;;;;;;10.00;86.39;97375.72;5029025;28;20206;-67
2021/09/22 02:45:37;;;;;;;18.03;10.23;;;;;;;10.07;84.90;97371.53;5028485;28;20220;-67
2021/09/22 02:48:09;;;;;;;16.13;9.57;;;;;;;10.23;83.30;97376.97;5028659;28;20225;-66
2021/09/22 02:50:37;;;;;;;16.30;9.10;;;;;;;9.97;83.06;97373.38;5028583;28;20220;-66
2021/09/22 02:53:04;;;;;;;15.97;9.83;;;;;;;9.94;85.10;97376.28;5028961;28;20206;-68
2021/09/22 02:55:32;;;;;;;18.60;10.60;;;;;;;9.76;86.17;97383.28;5028405;28;20198;-67
2021/09/22 02:57:59;;;;;;;16.90;10.13;;;;;;;9.81;84.99;97381.06;5029035;28;20201;-67
2021/09/22 03:00:27;;;;;;;19.00;9.67;;;;;;;9.75;84.52;97381.63;5028492;28;20721;-67
2021/09/22 03:02:55;;;;;;;16.90;9.43;;;;;;;9.63;83.64;97386.38;5028297;28;20271;-67
2021/09/22 03:05:24;;;;;;;15.90;8.93;;;;;;;9.87;85.57;97385.72;5028475;28;20213;-67
2021/09/22 03:07:51;;;;;;;17.33;9.67;;;;;;;9.71;84.48;97393.41;5028052;28;20233;-67
2021/09/22 03:10:20;;;;;;;15.47;9.27;;;;;;;9.80;83.25;97387.28;5028312;28;20202;-67
2021/09/22 03:12:48;;;;;;;14.80;8.80;;;;;;;9.73;82.98;97385.38;5029068;28;20205;-67
2021/09/22 03:15:16;;;;;;;15.87;8.90;;;;;;;9.67;83.89;97393.81;5028128;28;20202;-68
2021/09/22 03:17:43;;;;;;;14.17;8.63;;;;;;;9.62;83.77;97385.53;5028090;28;20275;-68
2021/09/22 03:20:12;;;;;;;14.53;8.80;;;;;;;9.81;83.55;97394.22;5028352;28;20237;-68
2021/09/22 03:22:41;;;;;;;13.83;8.50;;;;;;;9.83;83.50;97397.53;5028483;28;20276;-68
2021/09/22 03:25:10;;;;;;;13.87;8.50;;;;;;;9.81;83.75;97401.25;5028428;28;20198;-68
2021/09/22 03:27:37;;;;;;;16.73;9.27;;;;;;;9.72;83.96;97400.34;5027864;28;20272;-68
2021/09/22 03:30:07;;;;;;;15.37;8.67;;;;;;;9.79;84.48;97390.88;5027742;28;20202;-68
2021/09/22 03:32:35;;;;;;;16.33;8.50;;;;;;;9.73;82.86;97394.09;5028009;28;20268;-68
2021/09/22 03:35:03;;;;;;;16.00;9.47;;;;;;;9.57;84.85;97402.72;5028313;28;20213;-68
2021/09/22 03:37:31;;;;;;;18.77;10.27;;;;;;;9.40;87.33;97392.94;5027692;28;20763;-68
2021/09/22 03:40:00;;;;;;;20.53;10.37;;;;;;;9.53;86.21;97396.09;5028259;28;20213;-68
2021/09/22 03:42:28;;;;;;;18.20;9.97;;;;;;;9.64;84.14;97395.94;5028294;28;20201;-68
2021/09/22 03:44:56;;;;;;;17.27;9.43;;;;;;;9.44;83.96;97399.59;5028256;28;20213;-68
2021/09/22 03:47:24;;;;;;;19.00;9.50;;;;;;;9.29;84.20;97401.00;5027285;28;20658;-68
2021/09/22 03:49:51;;;;;;;16.13;9.40;;;;;;;9.45;83.90;97409.16;5028129;28;20206;-68
2021/09/22 03:52:19;;;;;;;16.57;9.57;;;;;;;9.51;84.51;97409.41;5027779;28;20213;-68
2021/09/22 03:54:46;;;;;;;17.57;10.13;;;;;;;9.34;86.02;97410.13;5028234;28;20205;-68
2021/09/22 03:57:16;;;;;;;20.03;10.73;;;;;;;9.48;86.38;97408.84;5027184;28;21255;-68
2021/09/22 03:59:43;;;;;;;16.77;9.73;;;;;;;9.40;84.02;97414.00;5028104;28;20205;-68
2021/09/22 04:02:11;;;;;;;16.70;9.57;;;;;;;9.26;82.80;97420.50;5027818;28;20213;-68
2021/09/22 04:04:39;;;;;;;16.27;9.30;;;;;;;9.30;85.19;97421.06;5028267;28;20206;-68
2021/09/22 04:07:06;;;;;;;23.60;10.70;;;;;;;9.20;86.92;97423.72;5027409;28;20225;-68
2021/09/22 04:09:34;;;;;;;16.67;9.57;;;;;;;9.35;85.20;97408.31;5027864;28;20206;-68
2021/09/22 04:12:01;;;;;;;16.87;9.33;;;;;;;9.25;84.46;97412.75;5027865;28;20206;-68
2021/09/22 04:14:31;;;;;;;16.43;9.07;;;;;;;9.51;82.54;97406.78;5028129;28;20202;-68
2021/09/22 04:16:58;;;;;;;17.37;9.03;;;;;;;9.34;82.33;97402.25;5030990;28;20340;-68
2021/09/22 04:19:26;;;;;;;16.13;8.80;;;;;;;9.27;84.87;97405.59;5031496;28;20217;-68
2021/09/22 04:21:54;;;;;;;13.83;8.40;;;;;;;9.44;85.31;97404.84;5031596;28;20233;-68
2021/09/22 04:24:21;;;;;;;16.90;9.60;;;;;;;9.46;85.42;97410.81;5031550;28;20206;-68
2021/09/22 04:26:49;;;;;;;18.33;10.00;;;;;;;9.35;84.68;97413.59;5031187;28;20233;-68
2021/09/22 04:29:17;;;;;;;21.73;11.10;;;;;;;9.29;86.62;97407.09;5030552;28;20209;-68
2021/09/22 04:31:46;;;;;;;16.93;9.53;;;;;;;9.07;84.23;97408.38;5031416;28;20210;-68
2021/09/22 04:34:13;;;;;;;16.53;9.33;;;;;;;9.13;83.18;97406.00;5030746;28;20680;-69
2021/09/22 04:36:42;;;;;;;19.03;9.60;;;;;;;9.29;83.72;97403.63;5030838;28;20228;-68
2021/09/22 04:39:09;;;;;;;16.03;9.60;;;;;;;9.31;84.82;97412.22;5031357;28;20798;-70
2021/09/22 04:41:37;;;;;;;17.37;10.43;;;;;;;9.13;85.30;97408.63;5031375;28;20205;-70
2021/09/22 04:44:05;;;;;;;19.17;10.80;;;;;;;9.28;85.82;97397.53;5031192;28;20217;-68
2021/09/22 04:46:33;;;;;;;21.13;11.33;;;;;;;9.13;85.82;97395.50;5030640;28;20582;-68
2021/09/22 04:49:02;;;;;;;21.30;11.57;;;;;;;9.43;84.56;97396.13;5031205;28;20216;-68
2021/09/22 04:51:30;;;;;;;17.97;10.10;;;;;;;8.94;83.99;97395.50;5031054;28;20256;-68
2021/09/22 04:53:57;;;;;;;17.53;10.17;;;;;;;8.84;83.91;97389.41;5031016;28;20243;-68
2021/09/22 04:56:25;;;;;;;21.30;12.17;;;;;;;8.95;85.96;97398.94;5030663;28;20249;-68
2021/09/22 04:58:52;;;;;;;25.43;13.50;;;;;;;9.20;87.75;97404.47;5031057;28;20198;-68
2021/09/22 05:01:20;;;;;;;24.23;12.23;;;;;;;9.34;87.16;97411.91;5031072;28;20213;-70
2021/09/22 05:03:48;;;;;;;23.43;12.20;;;;;;;9.50;85.68;97406.91;5031017;28;20213;-70
2021/09/22 05:06:17;;;;;;;24.40;12.57;;;;;;;9.23;85.99;97414.72;5030328;28;20804;-70
2021/09/22 05:08:45;;;;;;;24.43;12.30;;;;;;;8.88;87.21;97414.44;5030322;28;20225;-70
2021/09/22 05:11:12;;;;;;;23.80;12.70;;;;;;;9.08;88.11;97419.56;5030172;28;20272;-68
2021/09/22 05:13:40;;;;;;;23.23;11.50;;;;;;;9.19;88.10;97427.31;5030712;28;20218;-68
2021/09/22 05:16:08;;;;;;;22.63;12.60;;;;;;;9.22;89.29;97423.56;5029882;28;20229;-68
2021/09/22 05:18:35;;;;;;;23.00;12.10;;;;;;;9.31;87.97;97428.81;5030599;28;20268;-68
2021/09/22 05:21:03;;;;;;;24.30;12.60;;;;;;;9.53;87.74;97425.84;5030386;28;20260;-68
2021/09/22 05:23:32;;;;;;;25.97;13.40;;;;;;;9.63;86.10;97426.69;5030566;28;20214;-68
2021/09/22 05:26:00;;;;;;;22.20;11.93;;;;;;;9.63;85.53;97425.84;5030027;28;20222;-68
2021/09/22 05:28:29;;;;;;;19.60;11.27;;;;;;;9.48;85.59;97427.28;5030073;28;20221;-67
2021/09/22 05:30:57;;;;;;;23.50;11.70;;;;;;;9.46;84.94;97432.69;5029809;28;20225;-68
2021/09/22 05:33:24;;;;;;;23.03;12.17;;;;;;;9.44;84.88;97428.53;5030334;28;20205;-68
2021/09/22 05:35:52;;;;;;;22.37;12.50;;;;;;;9.48;86.77;97428.13;5029829;28;20248;-68
2021/09/22 05:38:20;;;;;;;28.87;12.73;;;;;;;9.57;87.99;97426.41;5030143;28;20209;-68
2021/09/22 05:40:49;;;;;;;24.00;12.30;;;;;;;9.65;85.76;97431.78;5030377;28;20256;-68
2021/09/22 05:43:17;;;;;;;25.30;12.53;;;;;;;9.72;85.04;97431.94;5029860;28;20268;-68
2021/09/22 05:45:44;;;;;;;22.70;12.07;;;;;;;9.75;84.20;97428.19;5029825;28;20209;-68
2021/09/22 05:48:12;;;;;;;22.13;11.47;;;;;;;9.72;84.96;97433.72;5029557;28;20328;-68
2021/09/22 05:50:40;;;;;;;24.03;12.80;;;;;;;9.79;85.60;97429.56;5029477;28;20673;-68
2021/09/22 05:53:08;;;;;;;24.67;12.63;;;;;;;9.91;86.08;97431.84;5029823;28;20214;-68
2021/09/22 05:55:35;;;;;;;25.20;13.37;;;;;;;9.98;85.48;97430.34;5029617;28;20212;-68
2021/09/22 05:58:04;;;;;;;22.03;12.00;;;;;;;10.18;84.55;97421.38;5028765;28;20201;-68
2021/09/22 06:00:32;;;;;;;22.93;12.13;;;;;;;9.72;85.50;97424.03;5029269;28;20205;-68
2021/09/22 06:03:00;;;;;;;23.87;12.37;;;;;;;9.95;84.92;97427.97;5029615;28;20202;-68
2021/09/22 06:05:27;;;;;;;27.03;12.40;;;;;;;9.98;84.85;97438.25;5029507;28;20218;-68
2021/09/22 06:07:55;;;;;;;21.20;11.40;;;;;;;9.88;85.43;97433.97;5029588;28;20218;-68
2021/09/22 06:10:22;;;;;;;21.93;11.87;;;;;;;9.96;85.29;97431.47;5029354;28;20739;-68
2021/09/22 06:12:50;;;;;;;24.73;12.10;;;;;;;9.93;85.75;97432.53;5029480;28;20205;-68
2021/09/22 06:15:19;;;;;;;22.70;12.10;;;;;;;9.78;88.28;97433.97;5029465;28;20213;-68
2021/09/22 06:17:47;;;;;;;25.70;13.87;;;;;;;10.05;86.98;97441.13;5029210;28;20305;-68
2021/09/22 06:20:14;;;;;;;26.03;12.80;;;;;;;9.80;88.33;97437.31;5029638;28;20210;-68
2021/09/22 06:22:42;;;;;;;25.90;13.67;;;;;;;10.03;88.04;97429.88;5026264;28;20209;-68
2021/09/22 06:25:11;;;;;;;28.43;13.57;;;;;;;10.03;88.27;97435.16;5017304;28;20202;-68
2021/09/22 06:27:39;;;;;;;26.77;14.20;;;;;;;10.17;87.43;97426.78;5016171;28;20676;-68
2021/09/22 06:30:08;;;;;;;29.17;13.87;;;;;;;10.38;87.67;97428.22;5014648;28;20250;-68
2021/09/22 06:32:38;;;;;;;24.07;12.63;;;;;;;10.50;86.68;97427.88;5027421;28;20206;-68
2021/09/22 06:35:06;;;;;;;28.70;12.80;;;;;;;10.52;85.67;97431.16;5028623;28;20657;-68
2021/09/22 06:37:35;;;;;;;27.30;13.87;;;;;;;10.40;86.55;97431.53;5021930;28;20335;-68
2021/09/22 06:40:02;;;;;;;29.20;14.17;;;;;;;10.50;87.54;97442.81;5016738;28;20206;-68
2021/09/22 06:42:30;;;;;;;24.70;13.67;;;;;;;10.51;87.77;97444.50;5023762;28;20205;-68
2021/09/22 06:44:58;;;;;;;25.93;13.63;;;;;;;10.64;87.14;97444.97;5028584;28;20305;-68
2021/09/22 06:47:26;;;;;;;29.43;14.53;;;;;;;10.75;86.61;97444.78;5028311;28;20234;-68
2021/09/22 06:49:56;;;;;;;25.83;13.87;;;;;;;11.01;86.53;97450.00;5028880;28;20609;-68
2021/09/22 06:52:24;;;;;;;26.73;13.83;;;;;;;11.02;86.51;97443.75;5028424;28;20255;-68
2021/09/22 06:54:52;;;;;;;24.70;13.43;;;;;;;11.13;86.05;97453.22;5028554;28;20210;-68
2021/09/22 06:57:20;;;;;;;23.70;13.53;;;;;;;11.08;87.38;97448.41;5023200;28;20228;-68
2021/09/22 06:59:48;;;;;;;24.93;13.63;;;;;;;11.22;84.65;97445.22;5016851;28;20209;-69
2021/09/22 07:02:15;;;;;;;27.60;13.53;;;;;;;11.37;85.60;97441.06;5024101;28;20206;-69
2021/09/22 07:04:43;;;;;;;31.03;13.33;;;;;;;11.45;85.26;97437.69;5016296;28;20256;-69
2021/09/22 07:07:13;;;;;;;25.37;13.83;;;;;;;11.74;85.51;97437.25;5018614;28;20743;-69
2021/09/22 07:09:41;;;;;;;26.23;13.90;;;;;;;11.68;84.79;97444.97;5028123;28;20658;-69
2021/09/22 07:12:08;;;;;;;26.63;14.23;;;;;;;11.75;83.65;97440.75;5028096;28;20260;-69
2021/09/22 07:14:36;;;;;;;28.47;13.77;;;;;;;11.88;83.87;97446.44;5028416;28;20235;-69
2021/09/22 07:17:04;;;;;;;28.77;14.67;;;;;;;11.70;83.88;97454.41;5027421;28;20712;-69
2021/09/22 07:19:33;;;;;;;27.67;15.03;;;;;;;11.74;83.01;97447.00;5028120;28;20690;-69
2021/09/22 07:22:01;;;;;;;27.60;15.43;;;;;;;11.83;82.94;97451.34;5028014;28;20294;-69
2021/09/22 07:24:30;;;;;;;31.53;15.33;;;;;;;11.90;83.65;97455.00;5027756;28;20220;-68
2021/09/22 07:26:58;;;;;;;29.37;14.77;;;;;;;12.04;83.54;97457.94;5028032;28;20225;-69
2021/09/22 07:29:27;;;;;;;31.80;16.00;;;;;;;11.90;83.44;97455.00;5026971;28;20233;-68
2021/09/22 07:35:14;;;;;;;28.13;14.43;;;;;;;12.03;81.92;97452.78;5020411;28;20259;-68
2021/09/22 07:37:41;;;;;;;29.70;15.07;;;;;;;12.15;82.19;97460.28;5027796;28;20225;-69
2021/09/22 07:40:11;;;;;;;31.83;15.37;;;;;;;12.47;81.61;97455.97;5028145;28;20212;-68
2021/09/22 07:42:37;;;;;;;26.63;14.97;;;;;;;12.45;82.34;97457.97;5028173;28;20194;-68
2021/09/22 07:45:06;;;;;;;26.30;15.30;;;;;;;13.02;80.64;97449.22;5028130;28;20297;-68
2021/09/22 07:47:32;;;;;;;30.60;16.17;;;;;;;12.89;80.55;97462.09;5027895;28;20228;-69
2021/09/22 07:49:59;;;;;;;29.97;15.47;;;;;;;12.96;79.49;97455.19;5030807;28;20209;-69
2021/09/22 07:52:25;;;;;;;27.23;14.97;;;;;;;13.27;78.30;97454.41;5032284;28;20201;-68
2021/09/22 07:54:52;;;;;;;30.43;15.33;;;;;;;13.17;78.45;97460.84;5032202;28;20228;-69
2021/09/22 07:57:20;;;;;;;25.90;15.27;;;;;;;13.35;77.97;97456.22;5031690;28;20222;-69
2021/09/22 07:59:46;;;;;;;29.07;15.83;;;;;;;13.38;78.31;97458.53;5032169;28;20556;-69
2021/09/22 08:02:13;;;;;;;28.10;15.63;;;;;;;13.77;77.24;97460.34;5031880;28;20218;-69
2021/09/22 08:04:39;;;;;;;30.15;16.65;;;;;;;13.67;79.03;97459.69;5032269;28;20218;-69
2021/09/22 08:07:06;;;;;;;26.88;15.43;;;;;;;13.59;78.87;97471.16;5031569;28;20244;-69
2021/09/22 08:09:33;;;;;;;28.20;15.57;;;;;;;13.84;78.92;97478.06;5031721;28;20716;-69
2021/09/22 08:12:00;;;;;;;26.58;15.80;;;;;;;14.11;77.11;97469.78;5031786;28;20256;-69
2021/09/22 08:14:30;;;;;;;28.00;15.48;;;;;;;14.10;76.80;97466.31;5031812;28;20202;-69
2021/09/22 08:16:58;;;;;;;26.52;15.50;;;;;;;14.18;75.20;97461.00;5031616;28;20226;-69
2021/09/22 08:19:24;;;;;;;30.67;15.20;;;;;;;14.11;76.40;97453.88;5031868;28;20492;-69
2021/09/22 08:21:51;;;;;;;29.02;15.23;;;;;;;13.98;76.61;97463.34;5031440;28;20206;-69
2021/09/22 08:24:17;;;;;;;28.40;16.52;;;;;;;14.14;77.27;97469.44;5031714;28;20202;-69
2021/09/22 08:26:44;;;;;;;28.25;15.35;;;;;;;14.31;76.92;97465.78;5031134;28;20228;-69
2021/09/22 08:29:11;;;;;;;27.75;17.05;;;;;;;14.52;78.16;97464.19;5030564;28;20596;-69
2021/09/22 08:31:39;;;;;;;25.48;15.40;;;;;;;14.92;73.89;97454.22;5031712;28;20201;-70
2021/09/22 08:34:06;;;;;;;26.83;15.85;;;;;;;14.71;76.47;97450.50;5031439;28;20653;-70
2021/09/22 08:36:32;;;;;;;24.13;15.68;;;;;;;14.71;74.58;97453.16;5031129;28;20225;-69
2021/09/22 08:38:59;;;;;;;26.45;14.70;;;;;;;14.97;72.59;97454.53;5031378;28;20201;-70
2021/09/22 08:41:25;;;;;;;24.38;14.40;;;;;;;14.90;72.57;97464.19;5031235;28;20194;-70
2021/09/22 08:43:52;;;;;;;24.35;15.07;;;;;;;14.98;68.17;97466.81;5031460;28;20228;-69
2021/09/22 08:46:19;;;;;;;27.08;14.50;;;;;;;15.26;70.30;97465.31;5030795;28;20717;-69
2021/09/22 08:48:47;;;;;;;25.33;14.55;;;;;;;15.16;72.44;97461.22;5031198;28;20218;-69
2021/09/22 08:51:14;;;;;;;27.45;14.68;;;;;;;15.47;68.22;97457.56;5031080;28;20231;-69
2021/09/22 08:53:41;;;;;;;20.88;13.02;;;;;;;15.57;67.56;97463.47;5031037;28;20205;-69
2021/09/22 08:56:11;;;;;;;22.35;13.57;;;;;;;15.60;67.91;97461.25;5030372;28;20234;-70
2021/09/22 08:58:38;;;;;;;21.88;12.57;;;;;;;15.53;65.13;97451.50;5031214;28;20202;-69
2021/09/22 09:01:13;;;;;;;21.73;13.38;;;;;;;15.97;64.82;97451.47;5030211;28;20205;-70
2021/09/22 09:03:42;;;;;;;22.17;13.07;;;;;;;15.85;65.05;97458.22;5030857;28;20209;-69
2021/09/22 09:06:23;;;;;;;21.75;13.02;;;;;;;16.10;66.98;97451.66;5030254;28;20276;-70
2021/09/22 09:08:52;;;;;;;23.50;13.57;;;;;;;16.11;66.39;97452.47;5030940;28;20228;-70
2021/09/22 09:11:25;;;;;;;23.80;12.60;;;;;;;16.18;65.05;97451.56;5031130;28;20213;-69
2021/09/22 09:13:54;;;;;;;21.65;12.55;;;;;;;16.28;65.32;97446.84;5031541;28;20582;-70
2021/09/22 09:16:23;;;;;;;21.05;11.82;;;;;;;16.06;64.53;97441.56;5030105;28;20225;-69
2021/09/22 09:18:52;;;;;;;17.90;11.45;;;;;;;16.23;65.76;97445.69;5030183;28;20309;-69
2021/09/22 09:21:22;;;;;;;19.17;12.02;;;;;;;16.33;64.71;97433.84;5030096;28;20658;-69
2021/09/22 09:23:52;;;;;;;19.98;11.85;;;;;;;16.24;64.39;97440.22;5030263;28;20217;-70
2021/09/22 09:26:22;;;;;;;21.67;12.70;;;;;;;16.36;68.78;97441.44;5030088;28;20313;-69
2021/09/22 09:28:52;;;;;;;17.60;11.35;;;;;;;16.40;65.75;97434.72;5029249;28;20257;-69
2021/09/22 09:31:20;;;;;;;18.83;11.85;;;;;;;16.53;64.57;97427.78;5030237;28;20209;-69
2021/09/22 09:33:50;;;;;;;17.58;11.45;;;;;;;17.00;63.85;97425.47;5030070;28;20261;-70
2021/09/22 09:36:27;;;;;;;19.35;11.68;;;;;;;17.15;62.97;97428.91;5029290;28;20244;-69
2021/09/22 09:38:58;;;;;;;20.58;10.68;;;;;;;16.74;61.05;97429.66;5030125;28;20551;-70
2021/09/22 09:41:28;;;;;;;19.38;11.45;;;;;;;16.72;60.37;97429.00;5029934;28;20272;-69
2021/09/22 09:43:56;;;;;;;16.60;10.45;;;;;;;16.81;60.05;97426.06;5030007;28;20209;-69
2021/09/22 09:46:25;;;;;;;15.75;9.82;;;;;;;16.63;60.63;97428.28;5029281;28;20728;-69
2021/09/22 09:49:02;;;;;;;16.25;10.05;;;;;;;17.29;58.05;97418.22;5029436;28;20693;-69
2021/09/22 09:51:55;;;;;;;18.30;10.82;;;;;;;17.13;59.03;97421.13;5030032;28;20237;-69
2021/09/22 09:54:25;;;;;;;17.27;10.05;;;;;;;16.95;62.04;97419.06;5026260;28;20205;-70
2021/09/22 09:56:54;;;;;;;15.70;10.50;;;;;;;17.54;58.36;97424.84;5029711;28;20230;-69
2021/09/22 09:59:23;;;;;;;15.65;9.85;;;;;;;17.42;58.33;97417.53;5029614;28;20209;-69
2021/09/22 10:01:52;;;;;;;16.25;10.07;;;;;;;17.46;59.89;97418.81;5029565;28;20298;-70
2021/09/22 10:04:22;;;;;;;15.77;9.52;;;;;;;17.68;59.15;97421.28;5029596;28;20210;-70
2021/09/22 10:06:53;;;;;;;13.77;8.50;;;;;;;17.92;57.12;97418.16;5029299;28;20632;-69
2021/09/22 10:09:22;;;;;;;11.95;7.18;;;;;;;18.07;58.65;97418.91;5029095;28;20725;-69
2021/09/22 10:11:50;;;;;;;14.85;7.65;;;;;;;18.18;60.57;97413.09;5029090;28;20696;-70
2021/09/22 10:14:19;;;;;;;11.32;7.15;;;;;;;17.90;61.87;97414.91;5029043;28;20213;-69
2021/09/22 10:16:50;;;;;;;8.27;5.75;;;;;;;18.07;57.88;97417.06;5029069;28;20233;-69
2021/09/22 10:19:18;;;;;;;7.88;5.50;;;;;;;17.95;58.31;97412.47;5029913;28;20252;-70
2021/09/22 10:21:44;;;;;;;7.53;4.47;;;;;;;18.19;57.99;97406.69;5029653;28;20210;-69
2021/09/22 10:24:12;;;;;;;7.55;4.78;;;;;;;18.35;57.75;97405.38;5029834;28;20212;-69
2021/09/22 10:26:41;;;;;;;6.60;4.90;;;;;;;17.83;56.92;97414.84;5029087;28;20226;-70
2021/09/22 10:29:22;;;;;;;8.30;4.78;;;;;;;18.13;58.81;97407.47;5028544;28;20697;-70
2021/09/22 10:31:49;;;;;;;8.43;5.13;;;;;;;18.28;59.40;97403.69;5029222;28;20579;-69
2021/09/22 10:34:32;;;;;;;7.88;4.90;;;;;;;18.71;57.54;97405.97;5029408;28;20198;-70
2021/09/22 10:37:00;;;;;;;7.47;4.55;;;;;;;18.20;58.27;97405.69;5028939;28;20256;-70
2021/09/22 10:39:40;;;;;;;6.90;4.97;;;;;;;18.55;60.47;97403.63;5029239;28;20198;-70
2021/09/22 10:42:24;;;;;;;7.30;4.70;;;;;;;18.89;58.30;97400.06;5028977;28;20610;-70
2021/09/22 10:44:50;;;;;;;7.13;4.85;;;;;;;18.42;56.50;97406.22;5029081;28;20670;-70
2021/09/22 10:47:26;;;;;;;8.05;4.80;;;;;;;18.62;59.53;97399.16;5028686;28;20226;-70
2021/09/22 10:49:53;;;;;;;9.48;4.97;;;;;;;18.24;57.84;97391.78;5029380;28;20283;-70
2021/09/22 10:52:36;;;;;;;7.95;5.10;;;;;;;18.79;58.02;97397.78;5028735;28;20202;-70
2021/09/22 10:55:11;;;;;;;8.75;4.90;;;;;;;18.71;58.36;97394.44;5028958;28;20208;-69
2021/09/22 10:57:40;;;;;;;9.80;5.07;;;;;;;18.53;58.43;97402.19;5028506;28;20303;-69
2021/09/22 11:00:12;;;;;;;7.25;5.35;;;;;;;18.87;59.43;97392.25;5028805;28;20198;-70
2021/09/22 11:02:47;;;;;;;8.85;5.10;;;;;;;19.14;57.48;97394.88;5028578;28;20260;-69
2021/09/22 11:05:15;;;;;;;11.82;4.97;;;;;;;19.16;57.74;97386.63;5028804;28;20205;-70
2021/09/22 11:08:03;;;;;;;8.43;5.35;;;;;;;19.74;55.72;97384.00;5028379;28;20229;-70
2021/09/22 11:10:41;;;;;;;11.98;6.15;;;;;;;18.90;57.03;97391.84;5028398;28;20214;-69
2021/09/22 11:13:38;;;;;;;9.23;5.32;;;;;;;19.37;55.01;97386.47;5028487;28;20674;-70
2021/09/22 11:16:10;;;;;;;7.47;4.93;;;;;;;19.47;58.40;97381.53;5028072;28;20225;-69
2021/09/22 11:18:39;;;;;;;7.45;5.18;;;;;;;19.33;57.46;97375.34;5028513;28;20201;-70
2021/09/22 11:21:06;;;;;;;12.02;6.38;;;;;;;19.19;54.60;97371.00;5028602;28;20209;-70
2021/09/22 11:23:32;;;;;;;10.43;5.60;;;;;;;19.26;59.38;97374.53;5028129;28;20198;-70
2021/09/22 11:26:04;;;;;;;9.98;5.53;;;;;;;19.35;54.99;97372.50;5028121;28;20232;-69
2021/09/22 11:28:31;;;;;;;10.52;5.30;;;;;;;18.95;54.70;97358.19;5028246;28;20202;-70
2021/09/22 11:30:59;;;;;;;11.52;6.07;;;;;;;19.21;56.44;97360.94;5027919;28;20202;-70